Patrick Air Force Base
KCOF : now visible

Airfield :











YOU CAN JOIN US ON...

 
LOGIN :

Register | Disclaimer

   EN    FR    IT 

 









Legend :    VFR   Marginal VFR   IFR   Intensive IFR   Very Intensive IFR
Visi :
Ceiling :
>= 8 km
>= 3000ft
5 to 8 km
1000 to 3000 ft
1500m to 5 km
500 to 1000 ft
800 to 1500m
200 to 500 ft
< 800m
< 200 ft
Symbols :   Thunderstorms  Fog  Heavy snow  Heavy precipitations  Wind > 20 kt






- Airport Elevation : 8 ft


KCOF - Patrick Air Force Base

CURRENT METAR :
  • 301856Z AUTO 25011KT 10SM FEW040 BKN050 23/18 A2982 RMK AO2 DZB11E23 SLP102 P0000 T02250176 $

EXPIRED METARs :
  • 301823Z AUTO 24011KT 10SM SCT026 BKN050 22/17 A2984 RMK AO2 DZB11E23 SLP109 $
  • 301811Z AUTO 25012KT 10SM -DZ BKN026 22/18 A2984 RMK AO2 DZB11 CIG 022V028 CIG 025 RWY03 SLP109 $
  • 301756Z AUTO 26010KT 10SM OVC022 21/17 A2985 RMK AO2 DZE02 CIG 021 RWY03 SLP113 P0000 60008 T02130171 10232 20206 57016 $
  • 301702Z AUTO 29013KT 10SM BKN019 BKN025 OVC033 21/17 A2986 RMK AO2 DZE02 CIG 019V025 SLP116 $
  • 301656Z AUTO 30014G27KT 10SM -DZ FEW015 BKN025 OVC035 22/17 A2986 RMK AO2 PK WND 29027/49 RAB48E49DZB49 CIG 025V035 SLP116 P0000 T02160172 $

TAF TAF KCOF
Valid from the 30 at 19:00 until the 02 at 01:00 UTC


301900Z 3019/0201 26012G18KT 9999 SCT020 BKN050 QNH2982INS
BECMG 3023/3024 28012G18KT 9999 FEW040 SCT080 QNH2986INS
BECMG 0103/0104 31012KT 9999 FEW050 QNH2994INS TX22/3019Z TN08/0110Z
KZMA FIR / North America



MET'MAP, your aeronautical weather chart ! - Copyright ORBIFLY December 2007 - Disclaimer

ORBIFLY MET'MAP TEAM :

Programming & Development : Alexandra Zaïnal
Concept & original design : Baudouin d'Aumeries
Assistance for programming : Marc-Olivier Méhu
Technical & hardware support : Manuel Goepfert

Contact : metmap@orbifly.com




SOURCES & CREDITS :

   NOAA       Earth
Advisory